createdAt,value
2018-09-12T00:02:28.592Z,6.97
2018-09-12T00:04:57.270Z,5.43
2018-09-12T00:07:25.900Z,5.70
2018-09-12T00:09:54.574Z,5.27
2018-09-12T00:12:23.333Z,6.00
2018-09-12T00:14:52.356Z,5.20
2018-09-12T00:17:20.986Z,5.53
2018-09-12T00:19:49.653Z,6.93
2018-09-12T00:22:18.311Z,6.60
2018-09-12T00:24:46.998Z,5.43
2018-09-12T00:27:15.720Z,7.07
2018-09-12T00:29:44.339Z,5.80
2018-09-12T00:32:12.989Z,5.73
2018-09-12T00:34:41.611Z,5.57
2018-09-12T00:37:10.299Z,5.47
2018-09-12T00:39:38.947Z,5.17
2018-09-12T00:42:07.590Z,5.00
2018-09-12T00:44:36.281Z,6.80
2018-09-12T00:47:04.892Z,5.77
2018-09-12T00:49:33.521Z,6.77
2018-09-12T00:52:02.263Z,5.33
2018-09-12T00:54:30.895Z,6.13
2018-09-12T00:56:59.511Z,6.80
2018-09-12T00:59:28.169Z,5.57
2018-09-12T01:01:56.802Z,6.80
2018-09-12T01:04:25.492Z,6.17
2018-09-12T01:06:55.062Z,5.60
2018-09-12T01:09:23.673Z,8.67
2018-09-12T01:11:52.294Z,5.73
2018-09-12T01:14:21.333Z,5.30
2018-09-12T01:16:55.116Z,5.90
2018-09-12T01:19:23.750Z,4.97
2018-09-12T01:21:52.370Z,5.87
2018-09-12T01:24:21.027Z,5.87
2018-09-12T01:26:49.701Z,5.50
2018-09-12T01:29:18.538Z,7.07
2018-09-12T01:31:47.180Z,8.77
2018-09-12T01:34:15.837Z,6.13
2018-09-12T01:36:44.446Z,4.80
2018-09-12T01:39:13.081Z,5.47
2018-09-12T01:41:41.818Z,7.37
2018-09-12T01:44:10.517Z,6.10
2018-09-12T01:46:39.126Z,5.70
2018-09-12T01:49:07.786Z,7.67
2018-09-12T01:51:36.439Z,5.53
2018-09-12T01:54:05.081Z,6.63
2018-09-12T01:56:33.681Z,7.50
2018-09-12T01:59:02.551Z,6.33
2018-09-12T02:01:31.231Z,9.10
2018-09-12T02:04:00.912Z,5.83
2018-09-12T02:06:33.125Z,5.50
2018-09-12T02:09:01.733Z,6.57
2018-09-12T02:11:30.412Z,8.83
2018-09-12T02:13:59.320Z,6.50
2018-09-12T02:16:27.964Z,6.30
2018-09-12T02:18:56.577Z,6.37
2018-09-12T02:21:25.244Z,7.33
2018-09-12T02:23:53.865Z,6.50
2018-09-12T02:26:22.649Z,7.90
2018-09-12T02:28:51.611Z,5.70
2018-09-12T02:31:20.241Z,6.43
2018-09-12T02:33:48.965Z,5.90
2018-09-12T02:36:22.810Z,5.67
2018-09-12T02:38:51.456Z,5.97
2018-09-12T02:41:20.078Z,6.20
2018-09-12T02:43:48.928Z,5.67
2018-09-12T02:46:17.567Z,8.80
2018-09-12T02:48:46.186Z,7.50
2018-09-12T02:51:14.862Z,5.57
2018-09-12T02:53:43.474Z,7.10
2018-09-12T02:56:12.123Z,5.80
2018-09-12T02:58:40.727Z,7.63
2018-09-12T03:01:09.449Z,7.93
2018-09-12T03:03:38.094Z,6.40
2018-09-12T03:06:07.331Z,6.67
2018-09-12T03:08:35.975Z,5.80
2018-09-12T03:11:04.878Z,5.70
2018-09-12T03:13:33.486Z,6.30
2018-09-12T03:16:02.086Z,6.40
2018-09-12T03:18:30.800Z,5.83
2018-09-12T03:20:59.524Z,7.43
2018-09-12T03:23:34.954Z,6.63
2018-09-12T03:26:03.572Z,6.90
2018-09-12T03:28:32.194Z,7.03
2018-09-12T03:31:00.832Z,5.20
2018-09-12T03:33:29.455Z,8.13
2018-09-12T03:35:58.338Z,7.40
2018-09-12T03:38:26.938Z,6.63
2018-09-12T03:40:55.549Z,6.20
2018-09-12T03:43:24.204Z,5.63
2018-09-12T03:45:52.799Z,7.07
2018-09-12T03:48:21.409Z,6.37
2018-09-12T03:50:50.049Z,5.63
2018-09-12T03:53:18.651Z,6.00
2018-09-12T03:55:47.286Z,6.87
2018-09-12T03:58:15.913Z,8.87
2018-09-12T04:00:44.546Z,5.83
2018-09-12T04:03:13.163Z,6.33
2018-09-12T04:05:41.961Z,6.80
2018-09-12T04:08:10.573Z,9.00
2018-09-12T04:10:39.190Z,6.70
2018-09-12T04:13:07.842Z,6.00
2018-09-12T04:15:36.473Z,5.83
2018-09-12T04:18:05.173Z,7.30
2018-09-12T04:20:33.777Z,6.00
2018-09-12T04:23:02.410Z,6.73
2018-09-12T04:25:31.026Z,6.17
2018-09-12T04:27:59.665Z,5.93
2018-09-12T04:30:28.281Z,5.10
2018-09-12T04:32:56.925Z,5.97
2018-09-12T04:35:25.559Z,5.87
2018-09-12T04:37:54.158Z,5.33
2018-09-12T04:40:22.943Z,6.27
2018-09-12T04:42:51.652Z,8.67
2018-09-12T04:45:20.208Z,6.93
2018-09-12T04:47:48.862Z,7.03
2018-09-12T04:50:17.694Z,6.60
2018-09-12T04:52:46.445Z,6.60
2018-09-12T04:55:15.097Z,6.33
2018-09-12T04:57:43.697Z,6.63
2018-09-12T05:00:12.411Z,6.73
2018-09-12T05:02:41.754Z,6.27
2018-09-12T05:05:10.477Z,6.30
2018-09-12T05:07:39.097Z,7.60
2018-09-12T05:10:07.773Z,5.90
2018-09-12T05:12:36.602Z,7.50
2018-09-12T05:15:05.328Z,6.43
2018-09-12T05:17:34.042Z,7.97
2018-09-12T05:20:02.692Z,6.40
2018-09-12T05:22:31.293Z,6.70
2018-09-12T05:24:59.917Z,11.10
2018-09-12T05:27:28.522Z,9.53
2018-09-12T05:29:57.245Z,6.87
2018-09-12T05:32:25.901Z,8.63
2018-09-12T05:34:54.562Z,7.23
2018-09-12T05:37:23.222Z,10.07
2018-09-12T05:39:51.840Z,6.83
2018-09-12T05:42:20.482Z,7.70
2018-09-12T05:44:49.098Z,6.97
2018-09-12T05:47:17.717Z,6.50
2018-09-12T05:49:46.356Z,5.87
2018-09-12T05:52:14.959Z,7.30
2018-09-12T05:54:43.700Z,8.80
2018-09-12T05:57:12.297Z,6.77
2018-09-12T05:59:40.936Z,8.10
2018-09-12T06:02:09.588Z,6.17
2018-09-12T06:04:38.197Z,7.53
2018-09-12T06:07:07.045Z,8.30
2018-09-12T06:09:35.501Z,6.03
2018-09-12T06:12:04.156Z,6.17
2018-09-12T06:14:32.793Z,8.20
2018-09-12T06:17:01.414Z,6.40
2018-09-12T06:19:30.078Z,6.30
2018-09-12T06:21:58.689Z,8.20
2018-09-12T06:24:27.302Z,7.70
2018-09-12T06:26:55.930Z,7.17
2018-09-12T06:29:24.581Z,11.10
2018-09-12T06:31:53.249Z,7.00
2018-09-12T06:34:21.850Z,10.77
2018-09-12T06:36:50.446Z,8.33
2018-09-12T06:39:19.070Z,11.07
2018-09-12T06:41:47.692Z,10.10
2018-09-12T06:44:16.336Z,7.00
2018-09-12T06:46:44.934Z,6.83
2018-09-12T06:49:13.557Z,7.70
2018-09-12T06:51:42.189Z,6.50
2018-09-12T06:54:10.784Z,7.63
2018-09-12T06:56:39.537Z,8.03
2018-09-12T06:59:08.248Z,7.67
2018-09-12T07:01:36.857Z,7.73
2018-09-12T07:04:05.585Z,17.03
2018-09-12T07:06:34.197Z,5.80
2018-09-12T07:09:02.970Z,8.47
2018-09-12T07:11:31.618Z,5.13
2018-09-12T07:14:00.271Z,7.40
2018-09-12T07:16:28.901Z,8.20
2018-09-12T07:18:57.577Z,5.43
2018-09-12T07:21:26.378Z,8.30
2018-09-12T07:23:55.005Z,5.53
2018-09-12T07:26:23.609Z,5.70
2018-09-12T07:28:52.277Z,5.53
2018-09-12T07:31:20.916Z,7.03
2018-09-12T07:33:49.556Z,9.73
2018-09-12T07:36:18.173Z,6.43
2018-09-12T07:38:46.761Z,8.03
2018-09-12T07:41:15.468Z,7.20
2018-09-12T07:43:44.135Z,8.33
2018-09-12T07:46:12.866Z,10.20
2018-09-12T07:48:41.481Z,9.07
2018-09-12T07:51:10.081Z,5.27
2018-09-12T07:53:38.730Z,5.77
2018-09-12T07:56:07.575Z,9.17
2018-09-12T07:58:36.334Z,5.03
2018-09-12T08:01:04.946Z,7.13
2018-09-12T08:03:33.545Z,7.10
2018-09-12T08:06:02.584Z,8.97
2018-09-12T08:08:31.195Z,5.97
2018-09-12T08:10:59.830Z,6.93
2018-09-12T08:13:28.425Z,7.40
2018-09-12T08:15:57.025Z,9.43
2018-09-12T08:18:25.690Z,6.93
2018-09-12T08:20:54.293Z,8.43
2018-09-12T08:23:23.192Z,5.77
2018-09-12T08:25:51.806Z,5.60
2018-09-12T08:28:20.436Z,7.53
2018-09-12T08:30:49.094Z,5.90
2018-09-12T08:33:17.743Z,6.03
2018-09-12T08:35:46.613Z,6.57
2018-09-12T08:38:15.215Z,6.93
2018-09-12T08:40:43.892Z,5.97
2018-09-12T08:43:12.524Z,6.53
2018-09-12T08:45:41.153Z,7.07
2018-09-12T08:48:10.089Z,6.00
2018-09-12T08:50:38.712Z,7.90
2018-09-12T08:53:07.328Z,5.67
2018-09-12T08:55:35.955Z,6.97
2018-09-12T08:58:04.561Z,6.10
2018-09-12T09:00:36.141Z,7.83
2018-09-12T09:03:06.269Z,6.73
2018-09-12T09:05:34.882Z,7.20
2018-09-12T09:08:03.498Z,7.07
2018-09-12T09:10:32.116Z,7.80
2018-09-12T09:13:00.752Z,8.57
2018-09-12T09:15:29.358Z,7.67
2018-09-12T09:17:57.985Z,5.73
2018-09-12T09:20:26.717Z,6.33
2018-09-12T09:22:55.376Z,6.10
2018-09-12T09:25:24.045Z,6.50
2018-09-12T09:27:52.674Z,6.27
2018-09-12T09:30:21.341Z,7.13
2018-09-12T09:32:50.026Z,6.43
2018-09-12T09:35:18.672Z,6.73
2018-09-12T09:37:47.330Z,6.07
2018-09-12T09:40:16.002Z,7.77
2018-09-12T09:42:44.654Z,8.20
2018-09-12T09:45:13.325Z,6.10
2018-09-12T09:47:41.952Z,6.03
2018-09-12T09:50:10.805Z,5.27
2018-09-12T09:52:39.410Z,6.83
2018-09-12T09:55:08.118Z,5.37
2018-09-12T09:57:36.964Z,5.10
2018-09-12T10:00:11.510Z,5.87
2018-09-12T10:02:41.247Z,4.30
2018-09-12T10:05:15.312Z,4.60
2018-09-12T10:07:47.135Z,5.07
2018-09-12T10:10:15.905Z,5.97
2018-09-12T10:12:44.654Z,4.70
2018-09-12T10:15:13.274Z,6.27
2018-09-12T10:17:41.910Z,4.40
2018-09-12T10:20:10.556Z,4.50
2018-09-12T10:22:39.161Z,4.43
2018-09-12T10:25:07.832Z,6.47
2018-09-12T10:27:36.480Z,6.63
2018-09-12T10:30:07.034Z,4.23
2018-09-12T10:32:35.670Z,6.67
2018-09-12T10:35:04.330Z,9.27
2018-09-12T10:37:33.026Z,4.40
2018-09-12T10:40:01.642Z,4.10
2018-09-12T10:42:30.299Z,4.00
2018-09-12T10:44:58.956Z,4.23
2018-09-12T10:47:27.610Z,5.67
2018-09-12T10:49:56.261Z,4.57
2018-09-12T10:52:24.898Z,4.03
2018-09-12T10:54:53.559Z,3.80
2018-09-12T10:57:22.201Z,4.03
2018-09-12T10:59:50.902Z,3.60
2018-09-12T11:02:19.533Z,5.80
2018-09-12T11:04:48.170Z,3.27
2018-09-12T11:07:16.808Z,4.60
2018-09-12T11:09:45.543Z,4.50
2018-09-12T11:12:14.137Z,3.43
2018-09-12T11:14:42.793Z,5.57
2018-09-12T11:17:11.442Z,4.57
2018-09-12T11:19:40.182Z,3.83
2018-09-12T11:22:08.924Z,4.80
2018-09-12T11:24:37.562Z,3.70
2018-09-12T11:27:06.253Z,3.40
2018-09-12T11:29:34.904Z,3.17
2018-09-12T11:32:03.533Z,4.50
2018-09-12T11:34:32.260Z,4.73
2018-09-12T11:37:00.890Z,5.37
2018-09-12T11:39:29.556Z,4.03
2018-09-12T11:41:58.173Z,3.57
2018-09-12T11:44:26.834Z,3.67
2018-09-12T11:46:55.444Z,4.00
2018-09-12T11:49:24.076Z,5.70
2018-09-12T11:51:52.680Z,3.87
2018-09-12T11:54:21.382Z,3.30
2018-09-12T11:56:50.017Z,3.70
2018-09-12T11:59:18.727Z,3.53
2018-09-12T12:01:47.308Z,3.57
2018-09-12T12:04:15.954Z,3.40
2018-09-12T12:06:44.726Z,4.80
2018-09-12T12:09:13.428Z,3.30
2018-09-12T12:11:42.162Z,4.20
2018-09-12T12:14:10.777Z,4.83
2018-09-12T12:16:39.419Z,4.70
2018-09-12T12:19:08.162Z,3.67
2018-09-12T12:21:36.769Z,4.63
2018-09-12T12:24:05.689Z,2.87
2018-09-12T12:26:34.333Z,3.73
2018-09-12T12:29:02.962Z,5.40
2018-09-12T12:31:31.606Z,5.00
2018-09-12T12:34:00.230Z,3.47
2018-09-12T12:36:28.905Z,4.63
2018-09-12T12:38:57.513Z,3.17
2018-09-12T12:41:26.236Z,3.27
2018-09-12T12:43:54.842Z,5.40
2018-09-12T12:46:23.489Z,5.97
2018-09-12T12:48:52.110Z,3.50
2018-09-12T12:51:20.733Z,3.17
2018-09-12T12:53:49.354Z,3.30
2018-09-12T12:56:18.013Z,6.50
2018-09-12T12:58:46.665Z,5.53
2018-09-12T13:01:15.280Z,3.30
2018-09-12T13:03:43.933Z,5.53
2018-09-12T13:06:12.530Z,6.43
2018-09-12T13:08:41.174Z,3.93
2018-09-12T13:11:09.772Z,3.50
2018-09-12T13:13:38.398Z,3.30
2018-09-12T13:16:07.185Z,4.87
2018-09-12T13:18:35.823Z,3.07
2018-09-12T13:21:04.497Z,4.33
2018-09-12T13:23:33.178Z,3.30
2018-09-12T13:26:01.801Z,3.23
2018-09-12T13:28:30.446Z,3.27
2018-09-12T13:30:59.072Z,4.23
2018-09-12T13:33:27.722Z,6.27
2018-09-12T13:35:56.355Z,3.43
2018-09-12T13:38:24.975Z,4.97
2018-09-12T13:40:53.645Z,3.40
2018-09-12T13:43:22.278Z,5.53
2018-09-12T13:45:50.913Z,4.20
2018-09-12T13:48:19.518Z,5.40
2018-09-12T13:50:48.141Z,3.17
2018-09-12T13:53:16.822Z,3.33
2018-09-12T13:55:45.428Z,2.83
2018-09-12T13:58:14.154Z,3.23
2018-09-12T14:00:43.857Z,5.03
2018-09-12T14:03:12.492Z,4.87
2018-09-12T14:05:41.117Z,5.90
2018-09-12T14:08:09.736Z,3.20
2018-09-12T14:10:38.488Z,3.00
2018-09-12T14:13:07.145Z,5.63
2018-09-12T14:15:35.786Z,3.27
2018-09-12T14:18:04.453Z,3.70
2018-09-12T14:20:33.082Z,3.07
2018-09-12T14:23:02.146Z,3.60
2018-09-12T14:25:30.837Z,5.33
2018-09-12T14:27:59.466Z,3.50
2018-09-12T14:30:28.131Z,3.53
2018-09-12T14:32:56.744Z,2.73
2018-09-12T14:35:25.636Z,6.33
2018-09-12T14:37:54.248Z,2.90
2018-09-12T14:40:22.919Z,2.60
2018-09-12T14:42:51.581Z,3.00
2018-09-12T14:45:20.181Z,4.93
2018-09-12T14:47:49.041Z,4.27
2018-09-12T14:50:17.677Z,2.77
2018-09-12T14:52:46.286Z,3.27
2018-09-12T14:55:14.920Z,3.23
2018-09-12T14:57:43.544Z,2.83
2018-09-12T15:00:12.322Z,3.43
2018-09-12T15:02:40.968Z,2.57
2018-09-12T15:05:09.618Z,3.13
2018-09-12T15:07:38.257Z,5.03
2018-09-12T15:10:06.901Z,3.00
2018-09-12T15:12:35.549Z,2.97
2018-09-12T15:15:04.220Z,3.63
2018-09-12T15:17:32.841Z,2.83
2018-09-12T15:20:01.461Z,5.07
2018-09-12T15:22:30.093Z,3.33
2018-09-12T15:24:58.753Z,3.33
2018-09-12T15:27:27.378Z,2.90
2018-09-12T15:29:56.009Z,3.80
2018-09-12T15:32:24.659Z,3.53
2018-09-12T15:34:53.273Z,3.40
2018-09-12T15:37:22.041Z,3.37
2018-09-12T15:39:50.650Z,4.80
2018-09-12T15:42:19.369Z,3.57
2018-09-12T15:44:48.026Z,3.10
2018-09-12T15:47:16.716Z,3.40
2018-09-12T15:49:45.605Z,3.23
2018-09-12T15:52:14.211Z,3.70
2018-09-12T15:54:42.825Z,2.67
2018-09-12T15:57:11.471Z,2.77
2018-09-12T15:59:40.078Z,3.10
2018-09-12T16:02:08.898Z,5.70
2018-09-12T16:04:37.530Z,3.40
2018-09-12T16:07:06.260Z,4.93
2018-09-12T16:09:34.924Z,4.30
2018-09-12T16:12:03.550Z,3.80
2018-09-12T16:14:32.198Z,5.93
2018-09-12T16:17:00.881Z,3.43
2018-09-12T16:19:29.453Z,4.17
2018-09-12T16:21:58.146Z,3.67
2018-09-12T16:24:26.757Z,5.20
2018-09-12T16:26:55.418Z,4.00
2018-09-12T16:29:24.091Z,5.77
2018-09-12T16:31:52.918Z,3.50
2018-09-12T16:34:21.575Z,3.97
2018-09-12T16:36:50.333Z,4.10
2018-09-12T16:39:18.985Z,3.43
2018-09-12T16:41:47.613Z,3.93
2018-09-12T16:44:16.269Z,3.30
2018-09-12T16:46:44.942Z,3.40
2018-09-12T16:49:13.577Z,3.80
2018-09-12T16:51:42.392Z,4.10
2018-09-12T16:54:10.948Z,3.30
2018-09-12T16:56:39.632Z,4.77
2018-09-12T16:59:08.283Z,7.40
2018-09-12T17:01:36.935Z,6.07
2018-09-12T17:04:05.591Z,4.00
2018-09-12T17:06:34.213Z,3.70
2018-09-12T17:09:02.964Z,3.50
2018-09-12T17:11:31.644Z,4.00
2018-09-12T17:14:00.272Z,4.37
2018-09-12T17:16:28.941Z,7.40
2018-09-12T17:19:04.295Z,4.50
2018-09-12T17:21:33.140Z,6.97
2018-09-12T17:24:01.857Z,4.00
2018-09-12T17:26:30.473Z,4.07
2018-09-12T17:28:59.143Z,4.63
2018-09-12T17:31:27.799Z,4.03
2018-09-12T17:33:56.445Z,3.40
2018-09-12T17:36:27.112Z,4.47
2018-09-12T17:38:55.785Z,4.07
2018-09-12T17:41:24.442Z,5.63
2018-09-12T17:43:53.318Z,4.70
2018-09-12T17:46:21.982Z,5.67
2018-09-12T17:48:50.620Z,5.80
2018-09-12T17:51:19.308Z,3.70
2018-09-12T17:53:48.077Z,3.97
2018-09-12T17:56:16.741Z,4.03
2018-09-12T17:58:45.351Z,7.07
2018-09-12T18:01:14.144Z,4.13
2018-09-12T18:03:42.762Z,4.93
2018-09-12T18:06:11.510Z,3.60
2018-09-12T18:08:40.109Z,3.73
2018-09-12T18:11:08.796Z,4.50
2018-09-12T18:13:37.426Z,4.43
2018-09-12T18:16:06.077Z,4.83
2018-09-12T18:18:34.906Z,5.57
2018-09-12T18:21:03.549Z,3.77
2018-09-12T18:23:32.200Z,4.73
2018-09-12T18:26:00.845Z,4.73
2018-09-12T18:28:29.475Z,5.33
2018-09-12T18:30:58.401Z,5.13
2018-09-12T18:33:27.001Z,5.10
2018-09-12T18:35:55.640Z,4.50
2018-09-12T18:38:24.413Z,5.37
2018-09-12T18:40:53.051Z,5.87
2018-09-12T18:43:21.734Z,5.93
2018-09-12T18:45:50.332Z,8.37
2018-09-12T18:48:19.053Z,7.27
2018-09-12T18:50:47.690Z,8.57
2018-09-12T18:53:16.322Z,6.40
2018-09-12T18:55:44.990Z,7.47
2018-09-12T18:58:13.615Z,6.57
2018-09-12T19:00:42.579Z,6.27
2018-09-12T19:03:11.202Z,5.77
2018-09-12T19:05:39.821Z,6.60
2018-09-12T19:08:08.635Z,5.70
2018-09-12T19:10:37.272Z,5.67
2018-09-12T19:13:05.935Z,5.87
2018-09-12T19:15:34.553Z,7.53
2018-09-12T19:18:03.178Z,7.37
2018-09-12T19:20:31.825Z,7.70
2018-09-12T19:23:00.497Z,7.07
2018-09-12T19:25:29.113Z,7.77
2018-09-12T19:27:57.748Z,9.37
2018-09-12T19:30:26.352Z,7.80
2018-09-12T19:32:56.164Z,6.97
2018-09-12T19:35:24.794Z,6.13
2018-09-12T19:37:53.417Z,5.87
2018-09-12T19:40:22.076Z,5.90
2018-09-12T19:42:50.693Z,7.83
2018-09-12T19:45:19.413Z,6.77
2018-09-12T19:47:48.076Z,6.40
2018-09-12T19:50:16.669Z,6.07
2018-09-12T19:52:45.313Z,7.20
2018-09-12T19:55:13.929Z,7.27
2018-09-12T19:57:42.710Z,7.97
2018-09-12T20:00:15.942Z,7.23
2018-09-12T20:02:44.624Z,7.73
2018-09-12T20:05:13.332Z,8.13
2018-09-12T20:07:41.971Z,9.03
2018-09-12T20:10:10.664Z,7.00
2018-09-12T20:12:39.309Z,5.40
2018-09-12T20:15:08.053Z,5.93
2018-09-12T20:17:36.673Z,9.00
2018-09-12T20:20:05.382Z,7.03
2018-09-12T20:22:34.008Z,6.70
2018-09-12T20:25:03.157Z,6.90
2018-09-12T20:27:31.795Z,8.13
2018-09-12T20:30:00.463Z,7.27
2018-09-12T20:32:29.099Z,6.83
2018-09-12T20:34:57.787Z,8.40
2018-09-12T20:37:26.417Z,7.77
2018-09-12T20:39:55.059Z,6.33
2018-09-12T20:42:23.708Z,8.00
2018-09-12T20:44:52.310Z,7.60
2018-09-12T20:47:21.028Z,7.43
2018-09-12T20:49:49.700Z,6.60
2018-09-12T20:52:18.341Z,7.87
2018-09-12T20:54:46.992Z,8.00
2018-09-12T20:57:15.665Z,6.60
2018-09-12T20:59:44.562Z,9.50
2018-09-12T21:02:13.175Z,8.33
2018-09-12T21:04:41.827Z,7.00
2018-09-12T21:07:10.481Z,7.33
2018-09-12T21:09:39.120Z,7.33
2018-09-12T21:12:07.833Z,7.17
2018-09-12T21:14:37.361Z,7.07
2018-09-12T21:17:05.993Z,9.33
2018-09-12T21:19:34.633Z,7.67
2018-09-12T21:22:03.269Z,8.90
2018-09-12T21:24:32.173Z,7.90
2018-09-12T21:27:00.813Z,8.07
2018-09-12T21:29:29.526Z,6.83
2018-09-12T21:31:58.226Z,9.73
2018-09-12T21:34:26.847Z,7.43
2018-09-12T21:36:55.677Z,6.20
2018-09-12T21:39:24.274Z,7.33
2018-09-12T21:41:52.924Z,11.13
2018-09-12T21:44:21.576Z,8.10
2018-09-12T21:46:50.231Z,7.67
2018-09-12T21:49:19.161Z,7.50
2018-09-12T21:51:54.462Z,7.60
2018-09-12T21:54:23.113Z,9.20
2018-09-12T21:56:51.764Z,7.33
2018-09-12T21:59:20.377Z,7.03
2018-09-12T22:01:49.097Z,6.97
2018-09-12T22:04:17.775Z,9.63
2018-09-12T22:06:46.685Z,8.93
2018-09-12T22:09:15.510Z,8.07
2018-09-12T22:11:44.220Z,7.67
2018-09-12T22:14:12.905Z,7.10
2018-09-12T22:16:41.527Z,7.63
2018-09-12T22:19:10.207Z,6.60
2018-09-12T22:21:38.846Z,9.10
2018-09-12T22:24:07.510Z,8.77
2018-09-12T22:26:36.174Z,7.40
2018-09-12T22:29:04.837Z,10.10
2018-09-12T22:31:33.485Z,7.47
2018-09-12T22:34:02.113Z,7.47
2018-09-12T22:36:30.777Z,8.27
2018-09-12T22:38:59.413Z,7.43
2018-09-12T22:41:28.114Z,7.67
2018-09-12T22:43:56.798Z,6.90
2018-09-12T22:46:25.469Z,7.40
2018-09-12T22:48:54.080Z,7.67
2018-09-12T22:51:22.993Z,7.73
2018-09-12T22:53:51.606Z,8.93
2018-09-12T22:56:20.242Z,10.50
2018-09-12T22:58:48.887Z,7.60
2018-09-12T23:01:17.503Z,7.70
2018-09-12T23:03:46.273Z,8.80
2018-09-12T23:06:14.966Z,8.93
2018-09-12T23:08:43.763Z,7.43
2018-09-12T23:11:13.062Z,8.07
2018-09-12T23:13:41.796Z,7.10
2018-09-12T23:16:10.556Z,7.50
2018-09-12T23:18:39.204Z,9.37
2018-09-12T23:21:07.818Z,8.27
2018-09-12T23:23:36.485Z,8.00
2018-09-12T23:26:05.116Z,7.27
2018-09-12T23:28:33.805Z,7.60
2018-09-12T23:31:02.487Z,7.47
2018-09-12T23:33:31.122Z,7.53
2018-09-12T23:35:59.772Z,8.67
2018-09-12T23:38:28.377Z,7.83
2018-09-12T23:40:57.108Z,7.50
2018-09-12T23:43:25.760Z,7.10
2018-09-12T23:45:54.398Z,7.20
2018-09-12T23:48:23.046Z,13.33
2018-09-12T23:50:51.669Z,7.50
2018-09-12T23:53:20.339Z,8.13
2018-09-12T23:55:48.961Z,7.50
2018-09-12T23:58:17.596Z,8.37
